Following are Alpine Race Results and Penalty Report


Ski Race Results generated by:
     USSA Race Software, Alpine/Snowboard/Cross Country Version 6.24
     Software written by Split Second, Inc.   www.SplitSecond.com


~~~~~~~~~~~~~~~~~~~~~~~~~~~~~~~~~~~~~~~~~~~~~~~~~~~~~~~~~~~~~~~~~~~~~~~~~~~~~~~~
                       U.S. SKI AND SNOWBOARD ASSOCIATION                       

                               ERIC HAYS MEMORIAL                               

                            USSA RACE CODE No. U0643                            
Park City Ski Team                                             DECEMBER 16, 2011
Park City Mountain Resort                                          Intermountain
--------------------------------------------------------------------------------

                          S L A L O M     L A D I E S                           
                                OFFICIAL RESULTS                                

JURY                                          TECHNICAL DATA

TD               R. KEITH          (USA)      COURSE                  PAYDAY RUN
REFEREE          B. BRASSEY        (USA)      START                       2268 M
CHIEF OF RACE    J. HUNT           (USA)      FINISH                      2145 M
                                              VERTICAL DROP                123 M
                                              
                                              HOMOLOG.Nr.             U426/11/09


                 1st RUN                          2nd RUN
COURSE SETTER    T. NARDI          (USA)          J. TSCHABRUN      (USA)
FORERUNNERS  -A- B. SKINNER        (USA)      -A- T. JALILI         (USA)
             -B- C. NORTON         (USA)      -B- C. NORTON         (USA)
             -C- M. MCGURL         (USA)      -C- R. WILSON         (USA)
             -D-                              -D- 
             -E-                              -E- 

GATES/DIR CHANGES   45/(44)                          44/(42)
START TIME       13.00                            17.00
WEATHER: CLEAR                SNOW: PACKED POWDER         TEMP. S: -4 C F: -1 C
-----------------------    UNOFFICIAL PENALTY   47.64    -----------------------
                                                                          F=610
 PL BIB  USSA    COMPETITOR---------------------   TIME    TIME    TOTAL    RACE
     Nr  Nr      SURNAME+NAME            CLUB/YR  1stRUN  2ndRUN    TIME  POINTS

  1  13 I5814116 Enders, Destrey           SB/94   42.36   42.17 1:24.53    0.00
  2   8 I5133541 Kelley, Jessica C       PCST/82   42.35   42.58 1:24.93    2.89
  3  12 I5970439 Frankenburg, Sophia     PCST/94   43.11   42.46 1:25.57    7.51
  4   1 I5964515 Wright, Isabella        JHSC/97   42.75   43.42 1:26.17   11.83
  5   3 I5851548 Morrison, Fiona         PCST/94   43.26   43.47 1:26.73   15.88
  6  10 I5947122 Stelling, Amanda        SVST/94   43.22   43.64 1:26.86   16.81
  7   6 I5908710 Jobe, Anna                RM/95   43.18   43.90 1:27.08   18.40
  8  15 I6028138 Hunsaker, Hannah        PCST/95   43.83   43.69 1:27.52   21.58
  9  19 I6061766 Busby, Samantha         SVST/97   44.05   44.10 1:28.15   26.12
 10   2 I6061568 Polukoff, Natalya E     PCST/95   44.91   43.99 1:28.90   31.54
 11   9 I5981709 Leavens, Emily          PCST/95   44.47   44.51 1:28.98   32.11
 12  24 I6017560 Torres, Isabel            RM/97   44.96   45.47 1:30.43   42.58
 13  30 X6009609 Bougri, Zina              BB/94   45.78   44.99 1:30.77   45.03
 14  37 I5997168 Tauber, Kristina        PCST/96   46.30   45.02 1:31.32   49.00
 15  28 I5926688 Wilson, Cassidy         PCST/95   45.64   45.80 1:31.44   49.87


16-12-11 / Park City Mountain ResortLIST: NLW512               U0643     SF8 / 1
--------------------------------------------------------------------------------
DATA PROCESSING BY USSA SOFTWARE                            TAG-Heuer 705 TIMING
~~~~~~~~~~~~~~~~~~~~~~~~~~~~~~~~~~~ NEW PAGE ~~~~~~~~~~~~~~~~~~~~~~~~~~~~~~~~~~~
                       U.S. SKI AND SNOWBOARD ASSOCIATION                       

                               ERIC HAYS MEMORIAL                               

                            USSA RACE CODE No. U0643                            
Park City Ski Team                                             DECEMBER 16, 2011
Park City Mountain Resort                                          Intermountain
--------------------------------------------------------------------------------

 PL BIB  USSA    COMPETITOR---------------------   TIME    TIME    TOTAL    RACE
     Nr  Nr      SURNAME+NAME            CLUB/YR  1stRUN  2ndRUN    TIME  POINTS

 16  74 I6073688 Cunningham-ward, Sierra   SB/98   46.54   46.38 1:32.92   60.55
 17  25 I6081863 Dewolfe, Sofia          SVST/95   46.72   46.23 1:32.95   60.76
 18  26 I5935804 Hendrickson, Hannah     PCST/94   47.05   46.03 1:33.08   61.70
 19  23 I5905088 Gibbs, Sarah              SB/95   47.31   46.08 1:33.39   63.94
 20  21 I6125439 Benzon, Kaya S            SB/97   46.73   46.82 1:33.55   65.09
 21  22 I6028161 Jakob, Rachel           PCST/95   45.03   49.06 1:34.09   68.99
 22  36 I6060008 Milgard, Madison        SVST/97   47.63   46.56 1:34.19   69.71
 23  65 I6048029 Smith, Sophie           PCST/98   47.19   47.12 1:34.31   70.58
 24  27 I6084438 Dingman, Megan          PCST/97   47.45   46.88 1:34.33   70.72
 25  14 I5878087 Petersen, Lauren          SB/96   47.64   47.21 1:34.85   74.47
 26  68 I6059554 Baer, Liz                 RM/98   48.64   46.24 1:34.88   74.69
 27  32 I6060446 Allison, Josie          SVST/97   47.60   47.38 1:34.98   75.41
 28  38 I5942792 Harris, Sydney          MSRT/97   48.37   47.94 1:36.31   85.01
 29  61 I6133805 Debaun, Sadie           PCST/98   48.10   48.24 1:36.34   85.23
 30  41 I6187918 Hoyt, Amy               PCST/96   47.86   49.32 1:37.18   91.29
 31  43 I6060412 Black, Alexandra K      SVST/97   49.24   48.79 1:38.03   97.42
 32  42 I6060263 Wentzell, Olivia        SVST/97   49.08   49.25 1:38.33   99.59
 33  44 I5881735 Warner, Beth            MSRT/96   49.04   49.49 1:38.53  101.03
 34  34 I6054894 Lam, Adria                SB/95   49.18   49.66 1:38.84  103.27
 35  80 I6125801 Davis, Ariana E           SB/98   49.70   50.07 1:39.77  109.98
 36  82 I6187827 Thomas, Claire          PCST/98   49.84   50.45 1:40.29  113.73
 37  57 I6054068 Armstrong, Payton M     MSRT/98   50.80   49.76 1:40.56  115.68
 38   7 I5981543 Leavens, Molly          PCST/97   43.10   57.57 1:40.67  116.47
 39  72 I6130470 Mazzoni, Ava            MSRT/98   50.15   50.75 1:40.90  118.13
 40  67 I6063473 Kochaver, Jessica         BB/98   50.71   50.59 1:41.30  121.02
 41  59 I6190235 Demschar, Isabel        PCST/98   50.93   50.46 1:41.39  121.67
 42  20 I6070395 Minniear, Cheech M      PCST/95   55.70   46.23 1:41.93  125.56
 43  40 I6061543 Turok, Sophie             SB/97   51.01   51.31 1:42.32  128.38
 44  58 I6217244 MacPherson, Hallie      SVST/98   51.24   51.79 1:43.03  133.50
 45  54 I6123657 Mosher, Hannah E        PCST/98   53.76   49.46 1:43.22  134.87
 46  47 X6065510 Robinson, Jana          OVST/97   50.76   52.93 1:43.69  138.27
 47  70 I6094312 Nickell, Elisabeth       PBC/98   52.63   51.34 1:43.97  140.29
 48  71 I6062137 Vorse, Poppy Ellie      SVST/98   53.14   51.92 1:45.06  148.15
 49  53 I6170815 Boomer, Fiona           OVST/96   52.44   53.11 1:45.55  151.69
 50  46 I6239603 Betebenner, Molly         SB/97   52.20   53.40 1:45.60  152.05
 51  66 I6023394 Milburn, Abigail        MSRT/98   51.84   53.84 1:45.68  152.63
 52  49 I6048375 Esposito, Sabrina       OVST/96   53.44   52.39 1:45.83  153.71
 53  69 I6005821 Church, Summer          MSRT/98   52.97   53.19 1:46.16  156.09
 54  62 I6097778 Westermann, Lia           SB/98   53.55   52.72 1:46.27  156.88
 55  48 I6062236 Unser, Loni             SVST/97   53.50   53.51 1:47.01  162.22
 56  33 I6041925 LaMere, Devan           JHSC/97   57.16   50.25 1:47.41  165.11
 57  78 I6060107 Griffith, Margot        SVST/98   53.93   53.74 1:47.67  166.99

16-12-11 / Park City Mountain ResortLIST: NLW512               U0643     SF8 / 2
--------------------------------------------------------------------------------
DATA PROCESSING BY USSA SOFTWARE                            TAG-Heuer 705 TIMING
~~~~~~~~~~~~~~~~~~~~~~~~~~~~~~~~~~~ NEW PAGE ~~~~~~~~~~~~~~~~~~~~~~~~~~~~~~~~~~~
                       U.S. SKI AND SNOWBOARD ASSOCIATION                       

                               ERIC HAYS MEMORIAL                               

                            USSA RACE CODE No. U0643                            
Park City Ski Team                                             DECEMBER 16, 2011
Park City Mountain Resort                                          Intermountain
--------------------------------------------------------------------------------

 PL BIB  USSA    COMPETITOR---------------------   TIME    TIME    TOTAL    RACE
     Nr  Nr      SURNAME+NAME            CLUB/YR  1stRUN  2ndRUN    TIME  POINTS

 58  77 I6165385 Andreini, Olivia        PCST/98   50.30   57.95 1:48.25  171.17
 59  75 I6305365 Mcintyre, Emily N         SB/98   54.45   54.22 1:48.67  174.20
 60  51 I6108880 Ellis, Kaitlyn M        MSRT/97   54.59   55.03 1:49.62  181.06
 61  76 I6083406 Chai, Mia                 BB/98   54.71   56.74 1:51.45  194.26
 62  81 I6109664 Demuro, Alanna          JHSC/98 1:02.89   49.15 1:52.04  198.52
 63  50 I6064927 Novak, Sarah A          KCST/96   55.48   58.20 1:53.68  210.36
 64  55 I6222095 Hammer, Holly             SB/98   57.81   58.33 1:56.14  228.11
 65  79 I6098917 Chilton, Brook           PBC/98 1:02.34   55.41 1:57.75  239.73
 66  52 I6045801 Oplinger, Sydney          SB/97 1:02.66 1:02.85 2:05.51  295.73
 67  63 I6151260 Harelson, Nina           PBC/98   58.67 1:19.88 2:18.55  389.83

DID NOT START 1st RUN
     45 I6271280 Tomlinson, Madeline R     SB/94
      4 E5779079 Troxell, Courtney         SB/93

DID NOT FINISH 1st RUN
     64 I6084024 Anderson, Laura B       OVST/98
     39 I6194120 Bois, Neah                SB/97
     35 I6059992 Murphy, Megan           SVST/97
     29 I6104939 Hochhauser, Sophie        RM/94
     18 I6044622 Munday, Morgan            RM/95
     11 I5811237 Zavala, Linnea            RM/93

DISQUALIFIED 1st RUN
     60 I6263871 Fleischer, Chloe        PCST/98   GATE   15
     56 I6100556 Greene, Nicole          PCST/98   GATE   32
     31 I6087274 Gilliam, Taylor           BB/94   GATE   45

DID NOT START 2nd RUN

DID NOT FINISH 2nd RUN
      5 I5877097 Shettig, Hayden         PCST/96

DISQUALIFIED 2nd RUN
     73 I6241673 Abate, Heather          PCST/98   GATE   43
     17 I6035398 Totten, Mary              BB/95   GATE   42
     16 I6068134 Polenz, Alexis          PCST/96   GATE   16

                                                TECHNICAL DELEGATE

                                                R. KEITH          (USA)


16-12-11 / Park City Mountain ResortLIST: NLW512               U0643     SF8 / 3
--------------------------------------------------------------------------------
DATA PROCESSING BY USSA SOFTWARE                            TAG-Heuer 705 TIMING
~~~~~~~~~~~~~~~~~~~~~~~~~~~~~~~~~~~ NEW PAGE ~~~~~~~~~~~~~~~~~~~~~~~~~~~~~~~~~~~
                       U.S. SKI AND SNOWBOARD ASSOCIATION                       

                               ERIC HAYS MEMORIAL                               

                            USSA RACE CODE No. U0643                            
Park City Ski Team                                             DECEMBER 16, 2011
Park City Mountain Resort                                          Intermountain
--------------------------------------------------------------------------------
                          S L A L O M     L A D I E S                           
                            USSA PENALTY CALCULATION                            

 THE BEST 10 AT FINISH:

  RACE    BIB    CODE   COMPETITOR                     USSA   BEST 5      RACE
 RESULT   NR.           SURNAME+NAME                 POINTS             POINTS

     1     13 I5814116  Enders, Destrey               56.13    56.13      0.00
     2      8 I5133541  Kelley, Jessica C             32.57    32.57      2.89
     3     12 I5970439  Frankenburg, Sophia           53.21    53.21      7.51
     4      1 I5964515  Wright, Isabella              64.05    64.05     11.83
     5      3 I5851548  Morrison, Fiona              101.10
     6     10 I5947122  Stelling, Amanda              65.41    65.41     16.81
     7      6 I5908710  Jobe, Anna                    82.28
     8     15 I6028138  Hunsaker, Hannah              83.50
     9     19 I6061766  Busby, Samantha              107.95
    10      2 I6061568  Polukoff, Natalya E           98.56

 THE BEST 5 AT START:

     2      8 I5133541  Kelley, Jessica C             32.57
    38      7 I5981543  Leavens, Molly                38.08
     3     12 I5970439  Frankenburg, Sophia           53.21
     1     13 I5814116  Enders, Destrey               56.13
     4      1 I5964515  Wright, Isabella              64.05

TOTALS                                              --------
(B) USSA POINTS OF BEST 5 AT START                   244.04  --------
(A) USSA POINTS OF BEST 5 TO FINISH IN TOP 10                 271.37   --------
(C)  RACE POINTS OF CORRESPONDING COMPETITORS                            39.04

CALCULATED PENALTY  271.37 + 244.04 -  39.04 : 10  =                     47.637
                      (A)      (B)      (C)

ROUNDED                                                                  47.64

PENALTY APPLIED:                                                         47.64

                                     _______________________
                                     R. KEITH          (USA)

16-12-11 / Park City Mountain ResortLIST: NLW512               U0643     SF9 / 1
--------------------------------------------------------------------------------
DATA PROCESSING BY USSA SOFTWARE                            TAG-Heuer 705 TIMING
~~~~~~~~~~~~~~~~~~~~~~~~~~~~~~~~~~~ NEW PAGE ~~~~~~~~~~~~~~~~~~~~~~~~~~~~~~~~~~~